Airfield :







YOU CAN JOIN US ON...

 
LOGIN :

Register | Disclaimer

   EN    FR    IT 

 









Legend :    VFR   Marginal VFR   IFR   Intensive IFR   Very Intensive IFR
Visi :
Ceiling :
>= 8 km
>= 3000ft
5 to 8 km
1000 to 3000 ft
1500m to 5 km
500 to 1000 ft
800 to 1500m
200 to 500 ft
< 800m
< 200 ft
Symbols :   Thunderstorms  Fog  Heavy snow  Heavy precipitations  Wind > 20 kt






- Airport Elevation : 235 ft
- IATA code : CCS


SVMI - Simon Bolivar

CURRENT METAR :
  • 282000Z 07004KT 9999 BKN016 28/24 Q1012 REDZ

EXPIRED METARs :
  • 281900Z 07002KT 9000 DZ BKN016 28/24 Q1012
  • 281802Z AUTO 04008KT NCD ///// Q1013
  • 281702Z AUTO 03004KT NCD ///// Q1014

TAF TAF SVMI
Valid from the 28 at 18:00 until the 29 at 18:00 UTC


281600Z 2818/2918 09005KT 9000 DZ SCT016 BKN070 TX32/2818Z TN25/2807Z
PROB30
TEMPO 2818/2822 09004KT 9000 -DZ BKN013
SVZM FIR / South America



MET'MAP, your aeronautical weather chart ! - Copyright ORBIFLY December 2007 - Disclaimer

ORBIFLY MET'MAP TEAM :

Programming & Development : Alexandra Zaïnal
Concept & original design : Baudouin d'Aumeries
Assistance for programming : Marc-Olivier Méhu
Technical & hardware support : Manuel Goepfert

Contact : metmap@orbifly.com




SOURCES & CREDITS :

   NOAA